createdAt,value
2022-07-28T00:04:29.845Z,15.29
2022-07-28T00:09:32.671Z,15.27
2022-07-28T00:14:36.003Z,15.25
2022-07-28T00:19:38.890Z,15.23
2022-07-28T00:24:41.900Z,15.23
2022-07-28T00:29:50.187Z,15.23
2022-07-28T00:34:53.889Z,15.21
2022-07-28T00:39:57.412Z,15.18
2022-07-28T00:45:00.280Z,15.13
2022-07-28T00:50:04.627Z,15.09
2022-07-28T00:55:07.919Z,15.99
2022-07-28T01:00:11.569Z,18.66
2022-07-28T01:05:15.606Z,18.43
2022-07-28T01:10:42.008Z,17.23
2022-07-28T01:15:54.339Z,16.57
2022-07-28T01:21:01.863Z,16.18
2022-07-28T01:26:41.664Z,15.87
2022-07-28T01:32:01.402Z,15.61
2022-07-28T01:37:11.767Z,15.43
2022-07-28T01:42:17.870Z,15.30
2022-07-28T01:47:22.761Z,15.19
2022-07-28T01:52:27.318Z,15.10
2022-07-28T01:57:32.635Z,15.03
2022-07-28T02:02:38.087Z,14.97
2022-07-28T02:07:43.311Z,16.03
2022-07-28T02:12:50.034Z,18.72
2022-07-28T02:17:53.801Z,17.82
2022-07-28T02:22:57.947Z,16.75
2022-07-28T02:28:06.733Z,16.20
2022-07-28T02:33:23.300Z,15.80
2022-07-28T02:38:44.839Z,15.49
2022-07-28T02:43:50.797Z,15.29
2022-07-28T02:49:00.615Z,16.30
2022-07-28T02:54:04.882Z,18.54
2022-07-28T02:59:09.373Z,17.40
2022-07-28T03:04:15.085Z,16.50
2022-07-28T03:09:18.336Z,16.04
2022-07-28T03:14:21.149Z,16.79
2022-07-28T03:19:24.030Z,19.38
2022-07-28T03:24:31.586Z,19.63
2022-07-28T03:29:36.291Z,17.90
2022-07-28T03:34:39.463Z,16.99
2022-07-28T03:39:48.457Z,16.47
2022-07-28T03:44:51.571Z,16.08
2022-07-28T03:49:54.480Z,17.00
2022-07-28T03:54:57.424Z,18.98
2022-07-28T04:00:00.505Z,17.68
2022-07-28T04:05:03.921Z,16.90
2022-07-28T04:10:11.847Z,16.48
2022-07-28T04:15:15.548Z,16.24
2022-07-28T04:20:19.648Z,17.83
2022-07-28T04:25:25.195Z,19.83
2022-07-28T04:30:28.875Z,18.62
2022-07-28T04:35:31.810Z,18.04
2022-07-28T04:40:34.809Z,17.84
2022-07-28T04:45:37.615Z,18.20
2022-07-28T04:50:42.350Z,20.43
2022-07-28T04:55:45.182Z,21.08
2022-07-28T05:00:50.350Z,20.66
2022-07-28T05:05:54.398Z,21.83
2022-07-28T05:10:58.046Z,25.23
2022-07-28T05:16:01.294Z,27.99
2022-07-28T05:21:04.665Z,27.31
2022-07-28T05:26:07.608Z,25.63
2022-07-28T05:31:10.691Z,24.19
2022-07-28T05:36:13.437Z,23.10
2022-07-28T05:41:16.300Z,22.47
2022-07-28T05:46:19.226Z,22.08
2022-07-28T05:51:22.255Z,21.81
2022-07-28T05:56:25.078Z,21.73
2022-07-28T06:01:27.872Z,21.88
2022-07-28T06:06:30.711Z,22.07
2022-07-28T06:11:33.620Z,21.99
2022-07-28T06:16:36.570Z,21.98
2022-07-28T06:21:40.451Z,22.35
2022-07-28T06:26:45.194Z,22.44
2022-07-28T06:31:48.248Z,22.47
2022-07-28T06:36:51.234Z,22.51
2022-07-28T06:41:54.021Z,22.51
2022-07-28T06:46:58.438Z,22.63
2022-07-28T06:52:01.478Z,24.01
2022-07-28T06:57:04.578Z,25.81
2022-07-28T07:02:08.423Z,25.98
2022-07-28T07:07:14.926Z,26.15
2022-07-28T07:12:20.226Z,25.92
2022-07-28T07:17:23.021Z,25.77
2022-07-28T07:22:26.183Z,25.90
2022-07-28T07:27:28.995Z,25.38
2022-07-28T07:32:32.131Z,25.05
2022-07-28T07:37:35.018Z,24.89
2022-07-28T07:42:38.372Z,24.41
2022-07-28T07:47:41.598Z,23.99
2022-07-28T07:52:44.396Z,23.83
2022-07-28T07:57:47.324Z,23.81
2022-07-28T08:02:50.490Z,23.75
2022-07-28T08:07:53.565Z,23.78
2022-07-28T08:12:56.493Z,24.40
2022-07-28T08:18:00.401Z,25.42
2022-07-28T08:23:03.283Z,25.64
2022-07-28T08:28:06.279Z,26.15
2022-07-28T08:33:09.044Z,26.27
2022-07-28T08:38:12.900Z,26.18
2022-07-28T08:43:29.583Z,26.15
2022-07-28T08:48:37.785Z,26.25
2022-07-28T08:53:42.984Z,27.17
2022-07-28T08:58:45.944Z,26.82
2022-07-28T09:03:50.898Z,27.24
2022-07-28T09:08:53.533Z,27.26
2022-07-28T09:13:56.403Z,28.25
2022-07-28T09:18:59.313Z,28.05
2022-07-28T09:24:02.226Z,27.08
2022-07-28T09:29:07.795Z,27.09
2022-07-28T09:34:10.644Z,27.15
2022-07-28T09:39:35.004Z,26.52
2022-07-28T09:44:38.009Z,25.98
2022-07-28T09:49:43.164Z,25.59
2022-07-28T09:55:09.668Z,25.30
2022-07-28T10:00:28.069Z,25.08
2022-07-28T10:05:41.262Z,24.94
2022-07-28T10:10:58.961Z,25.04
2022-07-28T10:16:12.846Z,24.90
2022-07-28T10:21:18.759Z,24.36
2022-07-28T10:26:28.961Z,23.85
2022-07-28T10:31:51.814Z,23.69
2022-07-28T10:37:02.237Z,23.82
2022-07-28T10:42:11.817Z,23.87
2022-07-28T10:47:18.443Z,23.88
2022-07-28T10:52:46.830Z,23.72
2022-07-28T10:58:01.780Z,23.38
2022-07-28T11:03:13.472Z,23.03
2022-07-28T11:08:17.139Z,22.72
2022-07-28T11:13:41.159Z,22.49
2022-07-28T11:19:04.766Z,22.43
2022-07-28T11:24:11.560Z,22.65
2022-07-28T11:29:17.017Z,23.08
2022-07-28T11:34:24.948Z,23.52
2022-07-28T11:39:30.720Z,23.84
2022-07-28T11:44:46.027Z,23.89
2022-07-28T11:50:11.547Z,23.84
2022-07-28T11:55:18.697Z,23.77
2022-07-28T12:00:23.057Z,23.79
2022-07-28T12:05:27.205Z,23.93
2022-07-28T12:10:53.793Z,24.13
2022-07-28T12:15:57.662Z,24.29
2022-07-28T12:21:04.917Z,24.45
2022-07-28T12:26:10.195Z,24.53
2022-07-28T12:31:15.182Z,24.70
2022-07-28T12:36:19.613Z,24.86
2022-07-28T12:41:22.538Z,24.98
2022-07-28T12:46:28.426Z,25.11
2022-07-28T12:51:39.300Z,25.11
2022-07-28T12:56:46.241Z,24.89
2022-07-28T13:01:58.482Z,24.57
2022-07-28T13:07:01.471Z,24.18
2022-07-28T13:12:17.996Z,23.76
2022-07-28T13:17:23.097Z,23.41
2022-07-28T13:22:33.383Z,22.95
2022-07-28T13:27:36.252Z,22.53
2022-07-28T13:32:39.138Z,22.21
2022-07-28T13:37:42.152Z,22.03
2022-07-28T13:42:52.860Z,22.00
2022-07-28T13:47:57.024Z,21.99
2022-07-28T13:52:59.946Z,21.99
2022-07-28T13:58:08.519Z,22.08
2022-07-28T14:03:12.959Z,22.28
2022-07-28T14:08:19.804Z,22.47
2022-07-28T14:13:22.812Z,22.81
2022-07-28T14:18:31.311Z,23.07
2022-07-28T14:23:34.156Z,23.33
2022-07-28T14:28:37.089Z,23.40
2022-07-28T14:33:45.596Z,23.33
2022-07-28T14:38:53.619Z,23.28
2022-07-28T14:43:58.188Z,23.17
2022-07-28T14:49:01.017Z,23.24
2022-07-28T14:54:04.466Z,23.36
2022-07-28T14:59:07.377Z,23.28
2022-07-28T15:04:12.632Z,22.90
2022-07-28T15:09:15.734Z,22.60
2022-07-28T15:14:21.180Z,22.28
2022-07-28T15:19:24.584Z,22.03
2022-07-28T15:24:30.608Z,21.74
2022-07-28T15:29:35.364Z,21.59
2022-07-28T15:34:38.627Z,21.66
2022-07-28T15:39:45.001Z,21.73
2022-07-28T15:44:49.436Z,21.58
2022-07-28T15:49:52.315Z,21.36
2022-07-28T15:54:56.750Z,21.17
2022-07-28T15:59:59.592Z,20.93
2022-07-28T16:05:02.570Z,20.80
2022-07-28T16:10:05.742Z,20.67
2022-07-28T16:15:09.192Z,20.53
2022-07-28T16:20:12.276Z,20.45
2022-07-28T16:25:20.448Z,20.39
2022-07-28T16:30:23.512Z,20.31
2022-07-28T16:35:26.419Z,20.26
2022-07-28T16:40:32.960Z,20.21
2022-07-28T16:45:36.015Z,20.16
2022-07-28T16:50:38.996Z,20.13
2022-07-28T16:55:43.399Z,20.10
2022-07-28T17:00:46.377Z,20.04
2022-07-28T17:05:49.400Z,19.95
2022-07-28T17:10:52.667Z,19.84
2022-07-28T17:15:56.585Z,19.67
2022-07-28T17:20:59.457Z,19.58
2022-07-28T17:27:11.901Z,19.49
2022-07-28T17:31:28.896Z,19.37
2022-07-28T17:36:39.044Z,19.26
2022-07-28T17:41:45.053Z,19.63
2022-07-28T17:46:49.312Z,21.01
2022-07-28T17:51:52.193Z,20.14
2022-07-28T17:56:56.775Z,19.59
2022-07-28T18:01:59.887Z,20.78
2022-07-28T18:07:02.827Z,22.29
2022-07-28T18:12:05.910Z,20.83
2022-07-28T18:17:09.001Z,19.87
2022-07-28T18:22:11.818Z,20.25
2022-07-28T18:27:14.687Z,21.23
2022-07-28T18:32:18.266Z,20.01
2022-07-28T18:37:21.308Z,19.79
2022-07-28T18:42:24.138Z,21.26
2022-07-28T18:47:29.119Z,20.12
2022-07-28T18:52:33.468Z,19.20
2022-07-28T18:57:36.352Z,19.95
2022-07-28T19:02:40.109Z,21.10
2022-07-28T19:07:43.115Z,19.78
2022-07-28T19:12:46.642Z,18.90
2022-07-28T19:18:10.640Z,19.70
2022-07-28T19:23:12.448Z,21.73
2022-07-28T19:28:16.309Z,20.90
2022-07-28T19:33:21.518Z,19.72
2022-07-28T19:38:24.421Z,21.05
2022-07-28T19:43:27.353Z,22.37
2022-07-28T19:48:30.344Z,21.72
2022-07-28T19:53:34.506Z,20.12
2022-07-28T19:58:39.854Z,20.06
2022-07-28T20:04:00.651Z,21.89
2022-07-28T20:09:06.822Z,21.44
2022-07-28T20:14:09.819Z,19.71
2022-07-28T20:19:12.809Z,19.65
2022-07-28T20:24:16.765Z,21.25
2022-07-28T20:29:20.021Z,20.95
2022-07-28T20:34:23.413Z,19.29
2022-07-28T20:39:44.389Z,19.66
2022-07-28T20:44:48.167Z,20.97
2022-07-28T20:49:51.347Z,19.58
2022-07-28T20:54:55.424Z,19.58
2022-07-28T20:59:58.270Z,21.13
2022-07-28T21:05:01.198Z,21.41
2022-07-28T21:10:05.734Z,19.56
2022-07-28T21:15:09.758Z,19.48
2022-07-28T21:20:13.023Z,20.87
2022-07-28T21:25:15.965Z,20.75
2022-07-28T21:30:18.964Z,19.87
2022-07-28T21:35:21.799Z,21.23
2022-07-28T21:40:24.982Z,21.85
2022-07-28T21:45:27.837Z,21.37
2022-07-28T21:50:30.649Z,19.50
2022-07-28T21:55:33.732Z,20.16
2022-07-28T22:00:36.547Z,21.38
2022-07-28T22:05:39.521Z,21.85
2022-07-28T22:10:42.491Z,21.32
2022-07-28T22:15:46.364Z,19.37
2022-07-28T22:20:49.266Z,19.82
2022-07-28T22:25:52.210Z,21.12
2022-07-28T22:30:55.538Z,21.62
2022-07-28T22:35:58.571Z,20.81
2022-07-28T22:41:01.578Z,19.07
2022-07-28T22:46:04.720Z,20.14
2022-07-28T22:51:12.127Z,21.11
2022-07-28T22:57:11.556Z,21.41
2022-07-28T23:02:14.897Z,19.50
2022-07-28T23:07:17.751Z,19.74
2022-07-28T23:12:21.249Z,20.95
2022-07-28T23:17:24.170Z,21.34
2022-07-28T23:22:30.656Z,19.88
2022-07-28T23:27:34.050Z,19.06
2022-07-28T23:32:37.014Z,20.44
2022-07-28T23:37:39.889Z,21.08
2022-07-28T23:42:42.763Z,20.63
2022-07-28T23:47:45.727Z,18.75
2022-07-28T23:52:48.630Z,19.34
2022-07-28T23:57:51.583Z,20.64
